AirNav   Bose Proflight or Bose A20?
 
 1246 users online  

NH40 Eagles Nest Airport
New London, New Hampshire, USA

GOING TO NEW LONDON?


FAA INFORMATION EFFECTIVE 23 MAY 2019

Location

FAA Identifier: NH40
Lat/Long: 43-24-16.7700N / 071-57-01.2980W
43-24.279500N / 071-57.021633W
43.4046583 / -71.9503606
(estimated)
Elevation: 998 ft. / 304 m (estimated)
Variation: 16W (1985)
From city: 2 miles ESE of NEW LONDON, NH
Time zone: UTC -4 (UTC -5 during Standard Time)
Zip code: 03257

Airport Operations

Airport use: Private use. Permission required prior to landing
Activation date: 10/1981
Control tower: no
ARTCC: BOSTON CENTER
FSS: BANGOR FLIGHT SERVICE STATION
Attendance: AL DAYLIGHT HOURS
Segmented circle: no

Airport Communications

UNICOM: 122.8

Nearby radio navigation aids

VOR radial/distance  VOR name  Freq  Var
CONr319/19.8CONCORD VOR/DME112.9015W
LEBr160/20.1LEBANON VOR/DME113.7015W
EENr036/39.6KEENE VORTAC109.4014W

 
NDB name  Hdg/Dist  Freq  Var  ID
CLAREMONT099/18.523316WCNH -.-. -. ....
HANOVER166/20.427615WLAH .-.. .- ....

Airport Services

Runway Information

Runway 14/32

Dimensions: 2800 x 30 ft. / 853 x 9 m
Surface: asphalt, in fair condition
RUNWAY 14  RUNWAY 32
Traffic pattern: leftleft
Obstructions: plinenone

Airport Ownership and Management from official FAA records

Ownership: Privately-owned
Owner: EAGLES NEST OWNERS ASSN
PO BOX 2460
NEW LONDON, NH 03257
Phone 603-526-6040
Manager: MANAGER
PO BOX 2460
NEW LONDON, NH 03257
Phone 603-526-6040

Additional Remarks

DO NOT CHART.
RY 32 LAND ONLY. RY 14 DEPART ONLY
NOT MAINTAINED IN WINTER.

Instrument Procedures

There are no published instrument procedures at NH40.

Some nearby airports with instrument procedures:

2B3 - Parlin Field Airport (10 nm W)
KCNH - Claremont Municipal Airport (18 nm W)
KLEB - Lebanon Municipal Airport (20 nm NW)
KCON - Concord Municipal Airport (23 nm SE)
KVSF - Hartness State Airport (Springfield) (25 nm W)
 
Loc | Ops | Rwys | IFR | FBO | Links
Com | Nav | Svcs | Stats | Notes
Area around NH40 (Eagles Nest Airport)
 
Road maps at: MapQuest Bing Google
 
Aerial photo
WARNING: Photo may not be current or correct
Aerial photo of NH40 (Eagles Nest Airport)
Do you have a better or more recent aerial photo of Eagles Nest Airport that you would like to share? If so, please send us your photo.

 
Sectional chart

 
Airport distance calculator
Flying to Eagles Nest Airport? Find the distance to fly.

From to NH40

Sunrise and sunset
Times for 17-Jun-2019
 Local
(UTC-4)
 Zulu
(UTC)
Morning civil twilight04:3208:32
Sunrise05:0809:08
Sunset20:3000:30
Evening civil twilight21:0501:05

Current date and time
Zulu (UTC)  17-Jun-2019 14:00:30
Local (UTC-4)  17-Jun-2019 10:00:30
 
METAR
KLEB 
20nm NW 
171353Z 00000KT 10SM CLR 18/12 A2999 RMK AO2 SLP150 T01830122
KCON 
23nm SE 
171351Z AUTO 33005KT 10SM CLR 20/12 A2997 RMK AO2 SLP149 T02000122
K1P1 
24nm N 
171335Z AUTO 31005KT 10SM CLR 19/12 A2997 RMK AO2 T01900118
KVSF 
25nm W 
171354Z AUTO 00000KT 10SM FEW030 BKN036 19/12 A2999 RMK AO2 SLP156 T01890122
KLCI 
25nm NE 
171256Z AUTO 00000KT 10SM CLR 18/13 A2997 RMK AO2 SLP148 T01830133
KEEN 
34nm SW 
171256Z AUTO VRB03KT 10SM CLR 18/12 A2999 RMK AO2 SLP159 T01830122 PNO $
KMHT 
36nm SE 
171353Z 32008KT 10SM FEW040 FEW250 22/12 A2995 RMK AO2 SLP154 T02170117
KAFN 
36nm S 
171352Z AUTO 00000KT 10SM SCT028 19/12 A3000 RMK AO2 SLP159 T01890117
TAF
KLEB 
20nm NW 
171120Z 1712/1812 VRB03KT P6SM FEW250
KCON 
23nm SE 
171120Z 1712/1812 VRB05KT P6SM FEW250
NOTAMs
Click for the latest NOTAMs
NOTAMs are issued by the DoD/FAA and will open in a separate window not controlled by AirNav.

 

 
 

Would you like to see your business listed on this page?

 If your business provides an interesting product or service to pilots, flight crews, aircraft, or users of the Eagles Nest Airport, you should consider listing it here.  To start the listing process, click on the button below
 
Add a business
 

Other Pages about Eagles Nest Airport

Update a link
 
Copyright © AirNav, LLC. All rights reserved. Privacy Policy  Contact